College Station, TX

9:06 AM CST on February 12, 2016 (GMT -0600)
Fox Meadows | | Change Station
CLOSE
Current Station
Personal Weather Station
Location: College Station, TX
Elevation: 289 ft
Nearby Weather Stations

Elev 289 ft 30.59 °N, 96.31 °W | Updated 13 seconds ago

Partly Cloudy
Partly Cloudy
59.2 °F
Feels Like 59.2 °F
N
3.1
Wind Variable Wind from SSW
Gusts 3.8 mph

Today
High -- | Low -- °F
--% Chance of Precip.
Yesterday
High -- | Low -- °F
Precip. -- in
Pressure 30.22 in
Visibility 10.0 miles
Clouds Clear
Dew Point 42 °F
Humidity 54%
Rainfall Not available.
Snow Depth Not available.
7:08 AM 6:10 PM
Waxing Crescent, 21% visible
METAR KCLL 121453Z 19009KT 10SM CLR 13/13 A3023 RMK AO2 SLP234 T01280128 53005
Pressure 30.22 in
Visibility 10.0 miles
Clouds Clear
Dew Point 42 °F
Humidity 54%
Rainfall Not available.
Snow Depth Not available.
7:08 AM 6:10 PM
Waxing Crescent, 21% visible
METAR KCLL 121453Z 19009KT 10SM CLR 13/13 A3023 RMK AO2 SLP234 T01280128 53005

10-Day Weather Forecast

Almanac

Astronomy

Feb. 12, 2016 Rise Set
Actual Time
Civil Twilight
Nautical Twilight
Astronomical Twilight
Moon
Length of Visible Light
Length of Day
Tomorrow will be .
, % of the Moon is Illuminated

Today's Extremes

State Highs State Lows

Community

WunderPhotos

Upload Photos

1,892,323 photos uploaded!

WunderBlog® & News

Nearby

Air Quality

  Air Quality AQ Index Pollutant
Not available.

Snow Depth

Station Depth Elevation

Earthquake Activity

City Distance Mag. Time & Date
Minimum magnitude displayed is 2.5.

Coastal Water Temperatures

Place Temperature

Stations

Nearby Weather Stations

Station Location Temp. Windchill Dew Point Humidity Wind Precip. Elev Updated Type
                   

Watches & Warnings

There are currently no watches in effect.